createdAt,value
2018-08-31T00:00:09.887Z,101889.22
2018-08-31T00:01:25.164Z,101893.24
2018-08-31T00:02:39.849Z,101890.72
2018-08-31T00:04:56.547Z,101895.22
2018-08-31T00:06:11.974Z,101896.47
2018-08-31T00:07:31.846Z,101888.21
2018-08-31T00:10:47.707Z,101893.20
2018-08-31T00:12:58.894Z,101887.20
2018-08-31T00:14:03.119Z,101889.89
2018-08-31T00:15:07.733Z,101890.90
2018-08-31T00:16:12.072Z,101889.68
2018-08-31T00:17:16.367Z,101887.73
2018-08-31T00:18:20.527Z,101887.73
2018-08-31T00:19:24.759Z,101891.12
2018-08-31T00:20:29.271Z,101885.13
2018-08-31T00:21:33.487Z,101887.53
2018-08-31T00:22:37.838Z,101889.72
2018-08-31T00:23:53.134Z,101889.23
2018-08-31T00:26:08.909Z,101884.73
2018-08-31T00:27:24.731Z,101889.88
2018-08-31T00:30:46.680Z,101885.86
2018-08-31T00:32:02.063Z,101878.97
2018-08-31T00:33:17.523Z,101887.64
2018-08-31T00:36:33.976Z,101883.25
2018-08-31T00:39:53.052Z,101891.83
2018-08-31T00:41:07.727Z,101892.62
2018-08-31T00:44:39.320Z,101890.06
2018-08-31T00:45:44.184Z,101893.16
2018-08-31T00:46:48.347Z,101891.81
2018-08-31T00:47:52.988Z,101889.14
2018-08-31T00:48:57.355Z,101887.53
2018-08-31T00:50:01.695Z,101888.36
2018-08-31T00:51:06.014Z,101889.58
2018-08-31T00:52:10.185Z,101885.78
2018-08-31T00:53:14.372Z,101890.16
2018-08-31T00:54:18.685Z,101889.53
2018-08-31T00:55:22.862Z,101885.03
2018-08-31T00:56:27.247Z,101884.05
2018-08-31T00:57:31.687Z,101886.73
2018-08-31T00:58:35.960Z,101886.25
2018-08-31T00:59:40.199Z,101888.44
2018-08-31T01:00:45.987Z,101887.44
2018-08-31T01:01:50.233Z,101884.27
2018-08-31T01:02:54.825Z,101882.45
2018-08-31T01:03:59.251Z,101875.38
2018-08-31T01:05:03.470Z,101879.77
2018-08-31T01:06:07.656Z,101883.79
2018-08-31T01:07:11.974Z,101882.30
2018-08-31T01:08:16.676Z,101878.80
2018-08-31T01:09:20.835Z,101881.81
2018-08-31T01:10:25.790Z,101878.80
2018-08-31T01:11:30.283Z,101879.13
2018-08-31T01:12:34.465Z,101882.18
2018-08-31T01:13:38.747Z,101879.98
2018-08-31T01:14:42.973Z,101880.36
2018-08-31T01:15:47.589Z,101879.02
2018-08-31T01:16:51.892Z,101876.34
2018-08-31T01:17:56.597Z,101875.11
2018-08-31T01:19:00.858Z,101874.63
2018-08-31T01:20:06.120Z,101871.09
2018-08-31T01:21:11.482Z,101873.66
2018-08-31T01:22:15.759Z,101871.09
2018-08-31T01:23:20.029Z,101879.13
2018-08-31T01:24:24.355Z,101877.80
2018-08-31T01:25:28.573Z,101881.48
2018-08-31T01:26:32.919Z,101876.12
2018-08-31T01:27:37.613Z,101876.94
2018-08-31T01:28:42.143Z,101874.78
2018-08-31T01:29:46.559Z,101877.46
2018-08-31T01:30:50.798Z,101878.43
2018-08-31T01:31:55.051Z,101874.90
2018-08-31T01:32:59.272Z,101876.39
2018-08-31T01:34:03.794Z,101877.36
2018-08-31T01:35:08.165Z,101876.02
2018-08-31T01:36:12.842Z,101880.64
2018-08-31T01:37:17.335Z,101876.14
2018-08-31T01:38:22.327Z,101875.28
2018-08-31T01:39:27.149Z,101875.28
2018-08-31T01:40:32.007Z,101878.33
2018-08-31T01:41:36.538Z,101878.11
2018-08-31T01:42:40.781Z,101877.26
2018-08-31T01:43:51.408Z,101879.94
2018-08-31T01:44:55.908Z,101879.94
2018-08-31T01:46:00.165Z,101881.16
2018-08-31T01:47:04.384Z,101879.67
2018-08-31T01:48:09.235Z,101880.03
2018-08-31T01:49:13.736Z,101874.68
2018-08-31T01:50:17.984Z,101880.03
2018-08-31T01:51:23.005Z,101878.33
2018-08-31T01:52:27.803Z,101881.50
2018-08-31T01:53:32.040Z,101877.48
2018-08-31T01:54:36.202Z,101882.50
2018-08-31T01:55:41.046Z,101882.98
2018-08-31T01:56:45.683Z,101878.97
2018-08-31T01:57:50.802Z,101885.30
2018-08-31T01:58:55.012Z,101883.59
2018-08-31T01:59:59.238Z,101885.93
2018-08-31T02:01:03.631Z,101883.25
2018-08-31T02:02:08.265Z,101884.70
2018-08-31T02:03:12.885Z,101882.52
2018-08-31T02:04:17.218Z,101887.02
2018-08-31T02:05:21.360Z,101883.15
2018-08-31T02:06:25.684Z,101882.44
2018-08-31T02:07:29.996Z,101883.05
2018-08-31T02:08:34.441Z,101883.90
2018-08-31T02:09:38.860Z,101882.56
2018-08-31T02:10:43.425Z,101881.34
2018-08-31T02:11:48.962Z,101880.86
2018-08-31T02:12:53.249Z,101880.00
2018-08-31T02:13:57.431Z,101879.52
2018-08-31T02:15:01.639Z,101885.35
2018-08-31T02:16:05.883Z,101881.00
2018-08-31T02:17:10.190Z,101879.30
2018-08-31T02:18:14.384Z,101875.77
2018-08-31T02:19:18.601Z,101877.59
2018-08-31T02:20:22.908Z,101881.27
2018-08-31T02:21:27.089Z,101878.59
2018-08-31T02:22:31.382Z,101877.85
2018-08-31T02:23:35.771Z,101877.85
2018-08-31T02:24:40.338Z,101877.00
2018-08-31T02:25:44.552Z,101877.00
2018-08-31T02:26:48.768Z,101872.98
2018-08-31T02:27:53.000Z,101876.88
2018-08-31T02:28:57.234Z,101879.92
2018-08-31T02:30:01.473Z,101872.38
2018-08-31T02:31:05.754Z,101868.97
2018-08-31T02:32:10.248Z,101864.61
2018-08-31T02:33:14.435Z,101870.09
2018-08-31T02:34:19.208Z,101869.75
2018-08-31T02:35:23.799Z,101867.67
2018-08-31T02:36:28.053Z,101868.64
2018-08-31T02:37:32.229Z,101874.63
2018-08-31T02:38:36.512Z,101871.58
2018-08-31T02:39:40.795Z,101875.59
2018-08-31T02:40:44.971Z,101876.60
2018-08-31T02:41:49.616Z,101877.09
2018-08-31T02:42:53.852Z,101869.66
2018-08-31T02:43:58.352Z,101876.86
2018-08-31T02:45:02.640Z,101875.16
2018-08-31T02:46:07.459Z,101875.64
2018-08-31T02:47:12.440Z,101873.11
2018-08-31T02:48:16.795Z,101872.38
2018-08-31T02:49:21.669Z,101865.31
2018-08-31T02:50:25.978Z,101869.47
2018-08-31T02:51:30.432Z,101869.95
2018-08-31T02:52:34.801Z,101875.31
2018-08-31T02:53:39.321Z,101869.59
2018-08-31T02:54:44.332Z,101879.95
2018-08-31T02:55:48.539Z,101876.02
2018-08-31T02:56:52.719Z,101875.17
2018-08-31T02:57:56.936Z,101874.84
2018-08-31T02:59:01.403Z,101874.47
2018-08-31T03:00:06.242Z,101879.81
2018-08-31T03:01:10.579Z,101871.08
2018-08-31T03:02:14.929Z,101875.09
2018-08-31T03:03:19.384Z,101871.68
2018-08-31T03:04:24.161Z,101869.00
2018-08-31T03:05:28.501Z,101869.97
2018-08-31T03:06:32.843Z,101871.83
2018-08-31T03:07:37.011Z,101870.12
2018-08-31T03:08:41.247Z,101870.97
2018-08-31T03:09:45.417Z,101876.55
2018-08-31T03:10:49.742Z,101875.21
2018-08-31T03:11:54.357Z,101878.86
2018-08-31T03:12:58.543Z,101874.73
2018-08-31T03:14:02.869Z,101872.53
2018-08-31T03:15:07.271Z,101874.73
2018-08-31T03:16:11.507Z,101869.74
2018-08-31T03:17:15.739Z,101870.56
2018-08-31T03:18:20.549Z,101875.80
2018-08-31T03:19:24.784Z,101872.75
2018-08-31T03:20:28.950Z,101872.27
2018-08-31T03:21:33.291Z,101870.45
2018-08-31T03:22:37.490Z,101874.84
2018-08-31T03:23:41.824Z,101866.29
2018-08-31T03:24:46.031Z,101866.44
2018-08-31T03:25:50.377Z,101878.48
2018-08-31T03:26:54.700Z,101873.13
2018-08-31T03:27:58.904Z,101865.58
2018-08-31T03:29:03.300Z,101865.73
2018-08-31T03:30:07.667Z,101872.42
2018-08-31T03:31:12.121Z,101876.06
2018-08-31T03:32:16.352Z,101871.68
2018-08-31T03:33:20.599Z,101869.38
2018-08-31T03:34:24.981Z,101868.63
2018-08-31T03:35:29.485Z,101866.95
2018-08-31T03:36:34.043Z,101869.27
2018-08-31T03:37:38.310Z,101870.23
2018-08-31T03:38:42.996Z,101871.23
2018-08-31T03:39:47.236Z,101871.83
2018-08-31T03:40:51.415Z,101869.78
2018-08-31T03:41:55.613Z,101866.73
2018-08-31T03:43:00.090Z,101869.42
2018-08-31T03:44:04.311Z,101868.94
2018-08-31T03:45:08.968Z,101867.73
2018-08-31T03:46:13.246Z,101870.75
2018-08-31T03:47:17.400Z,101873.31
2018-08-31T03:48:22.261Z,101862.72
2018-08-31T03:49:27.054Z,101863.95
2018-08-31T03:50:31.209Z,101867.48
2018-08-31T03:51:35.432Z,101866.63
2018-08-31T03:52:39.617Z,101861.88
2018-08-31T03:53:44.178Z,101868.94
2018-08-31T03:54:48.445Z,101867.22
2018-08-31T03:55:53.022Z,101871.61
2018-08-31T03:56:57.279Z,101869.08
2018-08-31T03:58:01.513Z,101864.70
2018-08-31T03:59:06.041Z,101864.70
2018-08-31T04:00:11.071Z,101871.02
2018-08-31T04:01:15.394Z,101862.98
2018-08-31T04:02:19.735Z,101867.48
2018-08-31T04:03:24.418Z,101868.34
2018-08-31T04:04:28.643Z,101867.85
2018-08-31T04:05:32.875Z,101868.70
2018-08-31T04:06:37.053Z,101869.08
2018-08-31T04:07:41.372Z,101865.77
2018-08-31T04:08:45.580Z,101870.16
2018-08-31T04:09:49.856Z,101862.61
2018-08-31T04:10:54.047Z,101865.14
2018-08-31T04:11:58.335Z,101870.01
2018-08-31T04:13:02.639Z,101866.84
2018-08-31T04:14:06.844Z,101870.49
2018-08-31T04:15:11.452Z,101866.48
2018-08-31T04:16:15.570Z,101867.48
2018-08-31T04:17:19.800Z,101870.98
2018-08-31T04:18:23.951Z,101870.16
2018-08-31T04:19:28.219Z,101870.64
2018-08-31T04:20:33.338Z,101871.83
2018-08-31T04:21:37.533Z,101867.48
2018-08-31T04:22:41.893Z,101865.77
2018-08-31T04:23:46.057Z,101868.81
2018-08-31T04:24:50.451Z,101871.98
2018-08-31T04:25:54.650Z,101867.48
2018-08-31T04:26:58.999Z,101866.73
2018-08-31T04:28:03.184Z,101875.25
2018-08-31T04:29:07.379Z,101868.22
2018-08-31T04:30:11.594Z,101872.72
2018-08-31T04:31:16.600Z,101871.87
2018-08-31T04:32:21.329Z,101873.20
2018-08-31T04:33:25.838Z,101878.07
2018-08-31T04:34:30.228Z,101874.32
2018-08-31T04:35:34.462Z,101876.99
2018-08-31T04:36:38.903Z,101881.01
2018-08-31T04:37:43.114Z,101882.94
2018-08-31T04:38:47.859Z,101887.47
2018-08-31T04:39:52.020Z,101883.94
2018-08-31T04:40:56.227Z,101887.95
2018-08-31T04:42:00.881Z,101884.20
2018-08-31T04:43:05.569Z,101887.84
2018-08-31T04:44:10.091Z,101889.66
2018-08-31T04:45:14.278Z,101886.39
2018-08-31T04:46:18.565Z,101886.05
2018-08-31T04:47:23.248Z,101888.35
2018-08-31T04:48:27.461Z,101887.61
2018-08-31T04:49:31.639Z,101887.27
2018-08-31T04:50:35.820Z,101894.81
2018-08-31T04:51:40.135Z,101889.58
2018-08-31T04:52:44.307Z,101891.77
2018-08-31T04:53:48.601Z,101885.19
2018-08-31T04:54:53.023Z,101887.53
2018-08-31T04:55:57.195Z,101891.17
2018-08-31T04:57:01.435Z,101888.02
2018-08-31T04:58:05.679Z,101892.51
2018-08-31T04:59:10.050Z,101893.47
2018-08-31T05:00:14.320Z,101890.46
2018-08-31T05:01:18.989Z,101886.45
2018-08-31T05:02:23.491Z,101890.94
2018-08-31T05:03:28.264Z,101886.08
2018-08-31T05:04:32.748Z,101890.46
2018-08-31T05:05:36.974Z,101894.47
2018-08-31T05:06:41.210Z,101897.48
2018-08-31T05:07:45.622Z,101893.95
2018-08-31T05:08:49.931Z,101886.78
2018-08-31T05:09:54.134Z,101889.83
2018-08-31T05:10:58.974Z,101891.17
2018-08-31T05:12:03.687Z,101903.20
2018-08-31T05:13:08.094Z,101896.52
2018-08-31T05:14:12.402Z,101902.35
2018-08-31T05:15:17.162Z,101893.47
2018-08-31T05:16:21.336Z,101896.52
2018-08-31T05:17:25.577Z,101896.14
2018-08-31T05:18:29.951Z,101893.95
2018-08-31T05:19:34.178Z,101896.29
2018-08-31T05:20:38.572Z,101895.44
2018-08-31T05:21:42.777Z,101910.25
2018-08-31T05:22:47.149Z,101902.23
2018-08-31T05:23:51.369Z,101895.69
2018-08-31T05:24:55.830Z,101906.77
2018-08-31T05:26:00.516Z,101899.70
2018-08-31T05:27:04.951Z,101905.91
2018-08-31T05:28:09.358Z,101903.34
2018-08-31T05:29:13.910Z,101899.33
2018-08-31T05:30:18.107Z,101906.02
2018-08-31T05:31:22.423Z,101902.86
2018-08-31T05:32:26.641Z,101902.86
2018-08-31T05:33:30.858Z,101902.61
2018-08-31T05:34:35.459Z,101900.78
2018-08-31T05:35:40.150Z,101896.41
2018-08-31T05:36:44.970Z,101893.25
2018-08-31T05:37:49.828Z,101896.77
2018-08-31T05:38:54.138Z,101899.19
2018-08-31T05:39:58.649Z,101903.20
2018-08-31T05:41:02.901Z,101902.58
2018-08-31T05:42:07.469Z,101902.32
2018-08-31T05:43:11.981Z,101907.45
2018-08-31T05:44:16.375Z,101903.78
2018-08-31T05:45:21.242Z,101905.34
2018-08-31T05:46:25.481Z,101900.73
2018-08-31T05:47:30.049Z,101902.30
2018-08-31T05:48:34.483Z,101905.20
2018-08-31T05:49:39.056Z,101905.09
2018-08-31T05:50:43.248Z,101908.47
2018-08-31T05:51:48.022Z,101904.83
2018-08-31T05:52:52.216Z,101910.55
2018-08-31T05:53:56.530Z,101911.26
2018-08-31T05:55:00.798Z,101915.27
2018-08-31T05:56:04.998Z,101915.27
2018-08-31T05:57:09.327Z,101916.61
2018-08-31T05:58:13.582Z,101919.28
2018-08-31T05:59:18.092Z,101920.63
2018-08-31T06:00:22.374Z,101913.94
2018-08-31T06:01:26.971Z,101918.32
2018-08-31T06:02:31.264Z,101918.66
2018-08-31T06:03:35.931Z,101920.00
2018-08-31T06:04:40.527Z,101925.95
2018-08-31T06:05:44.742Z,101924.50
2018-08-31T06:06:49.055Z,101927.17
2018-08-31T06:07:53.308Z,101929.84
2018-08-31T06:08:57.455Z,101926.17
2018-08-31T06:10:01.718Z,101924.34
2018-08-31T06:11:06.531Z,101927.28
2018-08-31T06:12:10.948Z,101932.12
2018-08-31T06:13:15.869Z,101931.04
2018-08-31T06:14:20.042Z,101930.52
2018-08-31T06:15:24.192Z,101927.25
2018-08-31T06:16:29.006Z,101931.16
2018-08-31T06:17:33.351Z,101929.22
2018-08-31T06:18:37.816Z,101930.41
2018-08-31T06:19:42.741Z,101932.00
2018-08-31T06:20:50.238Z,101933.20
2018-08-31T06:21:54.631Z,101937.80
2018-08-31T06:22:59.005Z,101933.16
2018-08-31T06:24:03.331Z,101936.20
2018-08-31T06:25:07.631Z,101930.59
2018-08-31T06:26:11.945Z,101934.13
2018-08-31T06:27:16.180Z,101939.59
2018-08-31T06:28:20.372Z,101941.14
2018-08-31T06:29:24.786Z,101932.48
2018-08-31T06:30:28.962Z,101938.09
2018-08-31T06:31:33.194Z,101942.33
2018-08-31T06:32:37.542Z,101942.92
2018-08-31T06:33:41.717Z,101930.97
2018-08-31T06:34:45.926Z,101937.03
2018-08-31T06:35:50.427Z,101944.69
2018-08-31T06:36:54.629Z,101942.45
2018-08-31T06:37:58.794Z,101938.53
2018-08-31T06:39:03.042Z,101942.66
2018-08-31T06:40:07.346Z,101939.71
2018-08-31T06:41:11.592Z,101943.46
2018-08-31T06:42:15.775Z,101948.55
2018-08-31T06:43:19.964Z,101945.61
2018-08-31T06:44:24.269Z,101941.92
2018-08-31T06:45:28.503Z,101947.53
2018-08-31T06:46:32.796Z,101950.43
2018-08-31T06:47:36.944Z,101945.44
2018-08-31T06:48:41.119Z,101947.37
2018-08-31T06:49:45.331Z,101942.83
2018-08-31T06:50:49.536Z,101944.41
2018-08-31T06:51:54.013Z,101944.75
2018-08-31T06:52:58.184Z,101944.63
2018-08-31T06:54:02.347Z,101947.68
2018-08-31T06:55:06.641Z,101946.19
2018-08-31T06:56:11.243Z,101949.72
2018-08-31T06:57:15.551Z,101944.36
2018-08-31T06:58:19.727Z,101942.05
2018-08-31T06:59:23.913Z,101943.72
2018-08-31T07:00:28.119Z,101941.41
2018-08-31T07:01:32.359Z,101947.47
2018-08-31T07:02:36.576Z,101940.77
2018-08-31T07:03:41.158Z,101945.64
2018-08-31T07:04:45.338Z,101943.81
2018-08-31T07:05:49.547Z,101945.53
2018-08-31T07:06:53.967Z,101943.70
2018-08-31T07:07:58.160Z,101941.75
2018-08-31T07:09:02.372Z,101949.16
2018-08-31T07:10:06.691Z,101951.72
2018-08-31T07:11:10.866Z,101948.06
2018-08-31T07:12:15.109Z,101946.57
2018-08-31T07:13:19.242Z,101951.33
2018-08-31T07:14:23.468Z,101945.97
2018-08-31T07:15:27.724Z,101949.47
2018-08-31T07:16:31.891Z,101946.30
2018-08-31T07:17:36.368Z,101948.49
2018-08-31T07:18:40.636Z,101951.17
2018-08-31T07:19:44.847Z,101949.56
2018-08-31T07:20:48.993Z,101947.25
2018-08-31T07:21:53.170Z,101945.27
2018-08-31T07:22:57.396Z,101952.70
2018-08-31T07:24:01.568Z,101954.38
2018-08-31T07:25:05.932Z,101952.06
2018-08-31T07:26:10.590Z,101958.28
2018-08-31T07:27:14.968Z,101958.13
2018-08-31T07:28:19.200Z,101953.13
2018-08-31T07:29:23.389Z,101961.54
2018-08-31T07:30:27.566Z,101960.20
2018-08-31T07:31:31.796Z,101951.30
2018-08-31T07:32:36.016Z,101958.22
2018-08-31T07:33:40.206Z,101963.09
2018-08-31T07:34:44.366Z,101958.59
2018-08-31T07:35:48.609Z,101961.97
2018-08-31T07:36:52.699Z,101963.03
2018-08-31T07:37:57.075Z,101970.11
2018-08-31T07:39:01.496Z,101957.39
2018-08-31T07:40:06.088Z,101959.80
2018-08-31T07:41:10.263Z,101964.55
2018-08-31T07:42:14.476Z,101962.23
2018-08-31T07:43:18.631Z,101964.28
2018-08-31T07:44:22.829Z,101962.66
2018-08-31T07:45:27.001Z,101965.71
2018-08-31T07:46:31.241Z,101965.92
2018-08-31T07:47:35.395Z,101966.63
2018-08-31T07:48:39.574Z,101971.50
2018-08-31T07:49:43.780Z,101962.84
2018-08-31T07:50:48.066Z,101968.91
2018-08-31T07:51:52.264Z,101971.09
2018-08-31T07:52:56.470Z,101968.99
2018-08-31T07:54:00.964Z,101973.34
2018-08-31T07:55:05.182Z,101971.23
2018-08-31T07:56:09.365Z,101968.44
2018-08-31T07:57:13.571Z,101972.18
2018-08-31T07:58:17.793Z,101972.75
2018-08-31T07:59:22.009Z,101975.28
2018-08-31T08:00:26.214Z,101974.18
2018-08-31T08:01:30.451Z,101978.54
2018-08-31T08:02:34.639Z,101978.75
2018-08-31T08:03:38.803Z,101978.50
2018-08-31T08:04:43.447Z,101976.88
2018-08-31T08:05:47.608Z,101978.91
2018-08-31T08:06:51.860Z,101977.94
2018-08-31T08:07:55.982Z,101981.32
2018-08-31T08:09:00.304Z,101982.17
2018-08-31T08:10:04.499Z,101978.63
2018-08-31T08:11:08.727Z,101980.83
2018-08-31T08:12:12.991Z,101977.98
2018-08-31T08:13:17.125Z,101981.92
2018-08-31T08:14:21.392Z,101982.77
2018-08-31T08:15:25.780Z,101982.13
2018-08-31T08:16:29.923Z,101982.13
2018-08-31T08:17:34.279Z,101982.70
2018-08-31T08:18:38.624Z,101992.18
2018-08-31T08:19:42.783Z,101991.05
2018-08-31T08:20:46.959Z,101982.86
2018-08-31T08:21:51.179Z,101982.86
2018-08-31T08:22:55.340Z,101985.87
2018-08-31T08:23:59.470Z,101983.06
2018-08-31T08:25:03.705Z,101985.39
2018-08-31T08:26:07.956Z,101981.08
2018-08-31T08:27:12.174Z,101984.12
2018-08-31T08:28:16.354Z,101983.14
2018-08-31T08:29:20.515Z,101980.46
2018-08-31T08:30:24.687Z,101985.67
2018-08-31T08:31:28.838Z,101989.08
2018-08-31T08:32:33.019Z,101988.23
2018-08-31T08:33:37.334Z,101983.72
2018-08-31T08:34:41.480Z,101986.89
2018-08-31T08:35:45.802Z,101981.16
2018-08-31T08:36:49.947Z,101981.52
2018-08-31T08:37:54.140Z,101985.87
2018-08-31T08:38:58.293Z,101985.87
2018-08-31T08:40:02.505Z,101983.55
2018-08-31T08:41:06.728Z,101983.55
2018-08-31T08:42:10.995Z,101983.91
2018-08-31T08:43:15.140Z,101988.64
2018-08-31T08:44:19.349Z,101988.64
2018-08-31T08:45:23.587Z,101983.63
2018-08-31T08:46:27.776Z,101983.34
2018-08-31T08:47:32.045Z,101982.86
2018-08-31T08:48:36.522Z,101982.69
2018-08-31T08:49:40.486Z,101983.27
2018-08-31T08:50:44.800Z,101987.37
2018-08-31T08:51:48.948Z,101985.73
2018-08-31T08:52:53.155Z,101984.27
2018-08-31T08:53:57.338Z,101985.31
2018-08-31T08:55:01.523Z,101991.88
2018-08-31T08:56:06.259Z,101987.84
2018-08-31T08:57:13.651Z,101988.05
2018-08-31T08:58:17.928Z,101986.94
2018-08-31T08:59:22.028Z,101985.92
2018-08-31T09:00:26.192Z,101979.44
2018-08-31T09:01:30.344Z,101988.19
2018-08-31T09:02:34.492Z,101985.02
2018-08-31T09:03:38.771Z,101986.72
2018-08-31T09:04:43.303Z,101978.13
2018-08-31T09:05:47.544Z,101978.36
2018-08-31T09:06:51.938Z,101979.06
2018-08-31T09:07:56.119Z,101977.91
2018-08-31T09:09:00.362Z,101975.16
2018-08-31T09:10:04.572Z,101979.23
2018-08-31T09:11:08.876Z,101972.94
2018-08-31T09:12:13.048Z,101976.55
2018-08-31T09:13:17.183Z,101971.10
2018-08-31T09:14:21.593Z,101981.89
2018-08-31T09:15:25.799Z,101978.41
2018-08-31T09:16:29.957Z,101978.77
2018-08-31T09:17:34.149Z,101968.70
2018-08-31T09:18:38.317Z,101973.82
2018-08-31T09:19:42.495Z,101970.11
2018-08-31T09:20:47.188Z,101970.83
2018-08-31T09:21:51.372Z,101966.08
2018-08-31T09:22:55.567Z,101971.33
2018-08-31T09:24:00.196Z,101976.41
2018-08-31T09:25:04.418Z,101976.60
2018-08-31T09:26:11.131Z,101971.22
2018-08-31T09:27:15.345Z,101972.93
2018-08-31T09:28:19.563Z,101968.23
2018-08-31T09:29:23.767Z,101968.95
2018-08-31T09:30:33.384Z,101970.98
2018-08-31T09:31:37.594Z,101976.56
2018-08-31T09:32:41.884Z,101969.34
2018-08-31T09:33:46.151Z,101969.70
2018-08-31T09:34:51.727Z,101977.66
2018-08-31T09:35:55.900Z,101969.66
2018-08-31T09:37:00.137Z,101973.94
2018-08-31T09:38:04.292Z,101971.27
2018-08-31T09:39:09.127Z,101969.34
2018-08-31T09:40:13.291Z,101968.44
2018-08-31T09:41:17.511Z,101968.49
2018-08-31T09:42:21.778Z,101962.94
2018-08-31T09:43:26.099Z,101961.45
2018-08-31T09:44:30.267Z,101959.75
2018-08-31T09:45:34.451Z,101959.09
2018-08-31T09:46:38.805Z,101961.48
2018-08-31T09:47:43.114Z,101959.17
2018-08-31T09:48:47.283Z,101955.19
2018-08-31T09:49:51.438Z,101958.42
2018-08-31T09:50:55.631Z,101961.61
2018-08-31T09:51:59.894Z,101952.54
2018-08-31T09:53:04.338Z,101954.56
2018-08-31T09:54:09.250Z,101950.03
2018-08-31T09:55:13.420Z,101956.59
2018-08-31T09:56:17.640Z,101957.66
2018-08-31T09:57:21.810Z,101951.61
2018-08-31T09:58:26.287Z,101951.30
2018-08-31T09:59:30.497Z,101952.03
2018-08-31T10:00:39.925Z,101955.13
2018-08-31T10:01:44.093Z,101950.11
2018-08-31T10:02:53.660Z,101948.94
2018-08-31T10:04:01.232Z,101955.19
2018-08-31T10:05:06.691Z,101956.70
2018-08-31T10:06:10.840Z,101954.15
2018-08-31T10:07:15.143Z,101955.85
2018-08-31T10:08:19.385Z,101963.44
2018-08-31T10:09:23.562Z,101951.64
2018-08-31T10:10:27.714Z,101948.94
2018-08-31T10:11:32.061Z,101952.84
2018-08-31T10:12:36.214Z,101946.60
2018-08-31T10:13:40.659Z,101942.56
2018-08-31T10:14:44.992Z,101945.40
2018-08-31T10:15:49.240Z,101947.27
2018-08-31T10:16:53.448Z,101942.88
2018-08-31T10:17:57.576Z,101944.22
2018-08-31T10:19:01.727Z,101945.08
2018-08-31T10:20:06.062Z,101944.91
2018-08-31T10:21:10.402Z,101943.55
2018-08-31T10:22:14.882Z,101944.05
2018-08-31T10:23:19.038Z,101944.05
2018-08-31T10:24:23.184Z,101942.20
2018-08-31T10:25:27.601Z,101945.40
2018-08-31T10:26:31.907Z,101940.23
2018-08-31T10:27:36.065Z,101944.28
2018-08-31T10:28:40.241Z,101939.78
2018-08-31T10:29:44.407Z,101942.84
2018-08-31T10:30:48.827Z,101940.54
2018-08-31T10:31:52.975Z,101938.56
2018-08-31T10:32:57.147Z,101939.27
2018-08-31T10:34:01.335Z,101939.98
2018-08-31T10:35:06.027Z,101937.33
2018-08-31T10:36:10.275Z,101938.07
2018-08-31T10:37:14.695Z,101938.60
2018-08-31T10:38:18.948Z,101938.45
2018-08-31T10:39:23.223Z,101941.83
2018-08-31T10:40:27.419Z,101939.48
2018-08-31T10:41:31.631Z,101940.98
2018-08-31T10:42:35.904Z,101941.48
2018-08-31T10:43:40.243Z,101952.27
2018-08-31T10:44:44.430Z,101934.41
2018-08-31T10:45:48.575Z,101936.26
2018-08-31T10:46:52.802Z,101942.00
2018-08-31T10:47:57.008Z,101934.23
2018-08-31T10:49:01.263Z,101936.94
2018-08-31T10:50:06.982Z,101940.48
2018-08-31T10:51:11.122Z,101938.14
2018-08-31T10:52:15.319Z,101939.16
2018-08-31T10:53:19.577Z,101938.49
2018-08-31T10:54:23.801Z,101937.14
2018-08-31T10:55:28.106Z,101937.14
2018-08-31T10:56:32.275Z,101938.17
2018-08-31T10:57:36.809Z,101937.14
2018-08-31T10:58:41.028Z,101936.15
2018-08-31T10:59:45.437Z,101935.80
2018-08-31T11:00:49.644Z,101939.52
2018-08-31T11:01:53.780Z,101933.77
2018-08-31T11:02:58.464Z,101935.13
2018-08-31T11:04:02.682Z,101935.47
2018-08-31T11:05:07.174Z,101934.63
2018-08-31T11:06:11.387Z,101937.50
2018-08-31T11:07:15.577Z,101932.77
2018-08-31T11:08:19.870Z,101932.13
2018-08-31T11:09:24.105Z,101930.46
2018-08-31T11:10:28.308Z,101931.81
2018-08-31T11:11:32.720Z,101932.31
2018-08-31T11:12:37.147Z,101931.81
2018-08-31T11:13:41.380Z,101934.02
2018-08-31T11:14:45.591Z,101935.86
2018-08-31T11:15:49.786Z,101932.81
2018-08-31T11:16:54.124Z,101931.95
2018-08-31T11:17:58.366Z,101928.09
2018-08-31T11:19:03.081Z,101932.28
2018-08-31T11:20:07.385Z,101933.09
2018-08-31T11:21:14.866Z,101932.07
2018-08-31T11:22:19.277Z,101928.20
2018-08-31T11:23:23.524Z,101938.14
2018-08-31T11:24:27.747Z,101938.63
2018-08-31T11:25:32.080Z,101933.38
2018-08-31T11:26:36.506Z,101933.92
2018-08-31T11:27:40.694Z,101928.84
2018-08-31T11:28:44.872Z,101930.69
2018-08-31T11:29:49.451Z,101932.39
2018-08-31T11:30:53.839Z,101926.32
2018-08-31T11:31:58.084Z,101929.87
2018-08-31T11:33:02.353Z,101927.49
2018-08-31T11:34:06.761Z,101929.34
2018-08-31T11:35:10.969Z,101931.58
2018-08-31T11:36:15.171Z,101928.37
2018-08-31T11:37:19.354Z,101921.98
2018-08-31T11:38:27.985Z,101923.34
2018-08-31T11:39:32.185Z,101920.47
2018-08-31T11:40:36.395Z,101917.63
2018-08-31T11:41:40.804Z,101920.99
2018-08-31T11:42:45.011Z,101919.32
2018-08-31T11:43:49.321Z,101921.70
2018-08-31T11:44:53.727Z,101918.36
2018-08-31T11:45:57.963Z,101918.17
2018-08-31T11:47:02.351Z,101917.18
2018-08-31T11:48:06.548Z,101916.68
2018-08-31T11:49:10.724Z,101914.31
2018-08-31T11:50:14.960Z,101912.25
2018-08-31T11:51:19.166Z,101916.98
2018-08-31T11:52:23.636Z,101916.45
2018-08-31T11:53:27.813Z,101918.13
2018-08-31T11:54:32.189Z,101916.42
2018-08-31T11:55:36.600Z,101914.72
2018-08-31T11:56:40.790Z,101916.24
2018-08-31T11:57:44.986Z,101917.23
2018-08-31T11:58:49.159Z,101910.49
2018-08-31T11:59:53.684Z,101912.55
2018-08-31T12:00:57.889Z,101908.83
2018-08-31T12:02:02.351Z,101914.22
2018-08-31T12:03:06.454Z,101909.50
2018-08-31T12:04:10.673Z,101909.50
2018-08-31T12:05:15.110Z,101913.89
2018-08-31T12:06:19.292Z,101912.38
2018-08-31T12:07:23.474Z,101908.18
2018-08-31T12:08:27.661Z,101910.55
2018-08-31T12:09:31.847Z,101913.75
2018-08-31T12:10:36.029Z,101907.69
2018-08-31T12:11:40.392Z,101907.47
2018-08-31T12:12:44.664Z,101914.08
2018-08-31T12:13:49.115Z,101906.83
2018-08-31T12:14:53.464Z,101912.55
2018-08-31T12:15:57.664Z,101904.81
2018-08-31T12:17:01.827Z,101911.91
2018-08-31T12:18:06.547Z,101909.03
2018-08-31T12:19:10.707Z,101902.78
2018-08-31T12:20:14.909Z,101900.80
2018-08-31T12:21:19.259Z,101902.99
2018-08-31T12:22:23.407Z,101898.77
2018-08-31T12:23:27.673Z,101901.81
2018-08-31T12:24:31.836Z,101902.48
2018-08-31T12:25:36.131Z,101899.30
2018-08-31T12:26:40.290Z,101902.70
2018-08-31T12:27:46.206Z,101899.67
2018-08-31T12:28:50.444Z,101904.91
2018-08-31T12:29:54.640Z,101898.84
2018-08-31T12:30:58.795Z,101897.66